高雄國際航空站 - 高雄掃描席

METAR RCKH 301530Z 05002KT 9999 FEW014 15/10 Q1019 NOSIG RMK A3010=

站台狀態:Online
最後更新:2023-01-30 23:30:02